Time;durP1;ratioP1;P1;durP2;ratioP2;P2;SDS_P1;SDS_P2;PMS_P1;PMS_P2;Temp;Humidity;BMP_temperature;BMP_pressure;BME280_temperature;BME280_humidity;BME280_pressure;Samples;Min_cycle;Max_cycle;Signal;HPM_P1;HPM_P2
2022/04/26 03:37:23;;;;;;;8.45;4.50;;;;;;;;;;5030320;28;20045;-77
2022/04/26 03:39:50;;;;;;;8.10;4.40;;;;;;;;;;5027992;28;20499;-77
2022/04/26 03:42:16;;;;;;;7.57;4.50;;;;;;;;;;5029231;28;20591;-78
2022/04/26 03:44:42;;;;;;;7.90;4.88;;;;;;;;;;5024921;28;20156;-77
2022/04/26 03:47:08;;;;;;;9.43;4.85;;;;;;;;;;5024134;28;20053;-78
2022/04/26 03:49:35;;;;;;;9.27;4.47;;;;;;;;;;5021755;28;20107;-77
2022/04/26 03:52:01;;;;;;;8.15;4.63;;;;;;;;;;5029585;28;20147;-78
2022/04/26 03:54:30;;;;;;;7.50;4.90;;;;;;;;;;5010874;28;20072;-77
2022/04/26 03:56:56;;;;;;;6.70;4.40;;;;;;;;;;5012716;28;20046;-78
2022/04/26 03:59:22;;;;;;;8.32;4.93;;;;;;;;;;5022033;28;20103;-77
2022/04/26 04:01:48;;;;;;;9.35;4.93;;;;;;;;;;5007047;28;20143;-77
2022/04/26 04:04:14;;;;;;;9.43;4.90;;;;;;;;;;5029691;28;20054;-78
2022/04/26 04:06:40;;;;;;;7.10;5.00;;;;;;;;;;5026691;28;20048;-77
2022/04/26 04:09:06;;;;;;;12.85;4.75;;;;;;;;;;5029474;28;20477;-77
2022/04/26 04:11:32;;;;;;;8.18;4.65;;;;;;;;;;5006498;28;20049;-77
2022/04/26 04:13:59;;;;;;;8.30;4.40;;;;;;;;;;5020769;28;20038;-77
2022/04/26 04:16:25;;;;;;;10.77;4.93;;;;;;;;;;5010625;28;20136;-77
2022/04/26 04:21:35;;;;;;;8.82;4.45;;;;;;;;;;5006838;28;20053;-77
2022/04/26 04:24:01;;;;;;;8.98;4.90;;;;;;;;;;5026102;28;20055;-77
2022/04/26 04:26:27;;;;;;;7.72;4.72;;;;;;;;;;5008955;28;20120;-77
2022/04/26 04:28:53;;;;;;;8.00;4.50;;;;;;;;;;5005962;28;20041;-77
2022/04/26 04:31:19;;;;;;;8.18;4.43;;;;;;;;;;5027639;28;20037;-78
2022/04/26 04:33:45;;;;;;;7.80;4.72;;;;;;;;;;5025041;28;20509;-77
2022/04/26 04:36:12;;;;;;;7.70;4.55;;;;;;;;;;5027192;28;20049;-77
2022/04/26 04:38:38;;;;;;;9.65;5.20;;;;;;;;;;5008953;28;20049;-77
2022/04/26 04:41:08;;;;;;;11.07;5.40;;;;;;;;;;5028430;28;20049;-77
2022/04/26 04:43:34;;;;;;;9.00;5.25;;;;;;;;;;5025866;28;20493;-77
2022/04/26 04:46:00;;;;;;;7.35;5.05;;;;;;;;;;5027064;28;20077;-77
2022/04/26 04:48:26;;;;;;;9.40;5.10;;;;;;;;;;5026486;28;20041;-77
2022/04/26 04:50:52;;;;;;;8.25;5.60;;;;;;;;;;5027432;28;20058;-77
2022/04/26 04:53:19;;;;;;;9.15;6.00;;;;;;;;;;5023182;28;20044;-77
2022/04/26 04:55:45;;;;;;;8.48;5.07;;;;;;;;;;5019856;28;20059;-77
2022/04/26 04:58:11;;;;;;;8.88;4.70;;;;;;;;;;5008829;28;20722;-77
2022/04/26 05:00:40;;;;;;;8.27;5.35;;;;;;;;;;5025529;28;20046;-77
2022/04/26 05:03:06;;;;;;;9.88;5.15;;;;;;;;;;5027785;28;20099;-77
2022/04/26 05:05:32;;;;;;;11.35;5.13;;;;;;;;;;5028380;28;20057;-77
2022/04/26 05:07:58;;;;;;;6.85;5.10;;;;;;;;;;5027723;28;20045;-77
2022/04/26 05:10:24;;;;;;;6.82;4.63;;;;;;;;;;5026277;28;20493;-77
2022/04/26 05:12:50;;;;;;;5.07;3.90;;;;;;;;;;5027423;28;20041;-77
2022/04/26 05:15:17;;;;;;;8.10;3.80;;;;;;;;;;5025776;28;20033;-77
2022/04/26 05:17:43;;;;;;;8.68;4.70;;;;;;;;;;5027382;28;20045;-77
2022/04/26 05:20:09;;;;;;;6.80;4.28;;;;;;;;;;5026967;28;20056;-77
2022/04/26 05:24:53;;;;;;;7.57;4.00;;;;;;;;;;5007819;28;20053;-77
2022/04/26 05:25:21;;;;;;;7.75;4.00;;;;;;;;;;5008131;28;20402;-77
2022/04/26 05:27:47;;;;;;;8.27;4.85;;;;;;;;;;5022315;28;20370;-77
2022/04/26 05:30:13;;;;;;;7.75;4.32;;;;;;;;;;5027832;28;20049;-77
2022/04/26 05:32:39;;;;;;;7.35;4.20;;;;;;;;;;5028264;28;20045;-77
2022/04/26 05:35:06;;;;;;;6.05;4.05;;;;;;;;;;5028065;28;20096;-77
2022/04/26 05:37:32;;;;;;;8.95;4.25;;;;;;;;;;5022438;28;20105;-77
2022/04/26 05:40:02;;;;;;;8.40;4.32;;;;;;;;;;5026428;28;20092;-77
2022/04/26 05:42:31;;;;;;;5.90;4.32;;;;;;;;;;5001716;28;20716;-77
2022/04/26 05:44:57;;;;;;;6.55;4.40;;;;;;;;;;5023277;28;20084;-77
2022/04/26 05:47:24;;;;;;;8.13;4.53;;;;;;;;;;5022930;28;20481;-78
2022/04/26 05:49:50;;;;;;;8.82;4.03;;;;;;;;;;4999114;28;20050;-77
2022/04/26 05:52:16;;;;;;;7.90;3.95;;;;;;;;;;5026037;28;20497;-77
2022/04/26 05:54:42;;;;;;;5.63;4.10;;;;;;;;;;5012037;28;22253;-77
2022/04/26 05:57:08;;;;;;;7.93;4.18;;;;;;;;;;5029795;28;20124;-78
2022/04/26 05:59:34;;;;;;;10.43;4.43;;;;;;;;;;5013468;28;20081;-77
2022/04/26 06:02:01;;;;;;;6.50;4.25;;;;;;;;;;5026262;28;20068;-77
2022/04/26 06:04:27;;;;;;;8.57;3.85;;;;;;;;;;5030982;28;20063;-77
2022/04/26 06:06:53;;;;;;;6.75;3.75;;;;;;;;;;5019186;28;20143;-77
2022/04/26 06:09:19;;;;;;;4.82;3.47;;;;;;;;;;5030438;28;20489;-77
2022/04/26 06:11:46;;;;;;;7.55;4.00;;;;;;;;;;5025823;28;20046;-77
2022/04/26 06:14:12;;;;;;;8.98;3.83;;;;;;;;;;5023217;28;20153;-78
2022/04/26 06:16:38;;;;;;;7.07;3.78;;;;;;;;;;5028112;28;20187;-77
2022/04/26 06:19:06;;;;;;;6.35;3.92;;;;;;;;;;5002995;28;20189;-77
2022/04/26 06:21:32;;;;;;;5.47;3.45;;;;;;;;;;5011916;28;20057;-77
2022/04/26 06:23:58;;;;;;;5.55;3.58;;;;;;;;;;5026798;28;20045;-77
2022/04/26 06:26:24;;;;;;;4.82;3.97;;;;;;;;;;5023330;28;20061;-77
2022/04/26 06:28:53;;;;;;;8.02;4.95;;;;;;;;;;5018448;28;20430;-77
2022/04/26 06:31:19;;;;;;;7.38;3.97;;;;;;;;;;5025359;28;20155;-77
2022/04/26 06:33:45;;;;;;;5.45;3.95;;;;;;;;;;5031402;28;20053;-77
2022/04/26 06:36:11;;;;;;;6.60;3.90;;;;;;;;;;5009604;28;20485;-78
2022/04/26 06:38:40;;;;;;;7.25;4.15;;;;;;;;;;5009720;28;20091;-77
2022/04/26 06:41:09;;;;;;;5.28;3.78;;;;;;;;;;5029461;28;20034;-77
2022/04/26 06:43:36;;;;;;;7.75;4.20;;;;;;;;;;5022595;28;20056;-77
2022/04/26 06:46:02;;;;;;;8.55;4.10;;;;;;;;;;5012526;28;20045;-78
2022/04/26 06:48:28;;;;;;;9.95;4.55;;;;;;;;;;5015115;28;20049;-77
2022/04/26 06:50:57;;;;;;;8.88;3.85;;;;;;;;;;5029472;28;20508;-76
2022/04/26 06:53:23;;;;;;;5.85;3.97;;;;;;;;;;5011781;28;20049;-77
2022/04/26 06:55:49;;;;;;;4.78;4.03;;;;;;;;;;5023993;28;20044;-78
2022/04/26 06:58:15;;;;;;;6.10;3.40;;;;;;;;;;5029246;28;20057;-77
2022/04/26 07:00:41;;;;;;;7.18;4.00;;;;;;;;;;5026857;28;20404;-77
2022/04/26 07:03:07;;;;;;;8.55;3.70;;;;;;;;;;5012285;28;20050;-78
2022/04/26 07:05:34;;;;;;;7.45;3.75;;;;;;;;;;5029474;28;20049;-76
2022/04/26 07:08:00;;;;;;;7.93;3.90;;;;;;;;;;5032570;28;20049;-76
2022/04/26 07:10:28;;;;;;;5.03;3.97;;;;;;;;;;5017720;28;20069;-77
2022/04/26 07:12:55;;;;;;;7.18;4.00;;;;;;;;;;5017787;28;20058;-77
2022/04/26 07:15:21;;;;;;;5.90;3.70;;;;;;;;;;5019976;28;20056;-77
2022/04/26 07:17:47;;;;;;;5.18;3.25;;;;;;;;;;5005158;28;20088;-77
2022/04/26 07:20:13;;;;;;;5.25;4.03;;;;;;;;;;5018022;28;20054;-76
2022/04/26 07:22:39;;;;;;;5.47;3.97;;;;;;;;;;5029140;28;20469;-77
2022/04/26 07:25:06;;;;;;;5.97;3.60;;;;;;;;;;5021280;28;20410;-78
2022/04/26 07:27:32;;;;;;;7.47;3.50;;;;;;;;;;5023231;28;20041;-78
2022/04/26 07:29:58;;;;;;;5.80;3.40;;;;;;;;;;5029249;28;20522;-77
2022/04/26 07:34:20;;;;;;;5.88;3.55;;;;;;;;;;5012868;28;20061;-77
2022/04/26 07:35:10;;;;;;;6.95;3.50;;;;;;;;;;5030355;28;20099;-77
2022/04/26 07:37:37;;;;;;;5.72;3.22;;;;;;;;;;5015102;28;20049;-77
2022/04/26 07:40:03;;;;;;;5.28;3.40;;;;;;;;;;5029644;28;20045;-77
2022/04/26 07:42:29;;;;;;;5.00;3.58;;;;;;;;;;5027710;28;20052;-77
2022/04/26 07:44:55;;;;;;;3.78;3.20;;;;;;;;;;5028092;28;20045;-77
2022/04/26 07:47:24;;;;;;;7.45;3.40;;;;;;;;;;5031881;28;20037;-78
2022/04/26 07:49:50;;;;;;;6.75;3.78;;;;;;;;;;5024928;28;20049;-78
2022/04/26 07:52:16;;;;;;;5.47;3.40;;;;;;;;;;5030784;28;20037;-77
2022/04/26 07:54:42;;;;;;;5.82;3.53;;;;;;;;;;5025404;28;20436;-78
2022/04/26 07:57:09;;;;;;;5.70;3.40;;;;;;;;;;5026123;28;20049;-78
2022/04/26 07:59:34;;;;;;;6.85;3.28;;;;;;;;;;5012772;28;20479;-78
2022/04/26 08:02:00;;;;;;;5.00;3.50;;;;;;;;;;5029876;28;20121;-78
2022/04/26 08:04:26;;;;;;;5.35;3.30;;;;;;;;;;5026718;28;20037;-78
2022/04/26 08:06:52;;;;;;;4.88;4.07;;;;;;;;;;5014006;28;20084;-77
2022/04/26 08:09:18;;;;;;;6.13;3.17;;;;;;;;;;5029832;28;20038;-78
2022/04/26 08:11:46;;;;;;;3.85;2.95;;;;;;;;;;5031063;28;20057;-77
2022/04/26 08:14:15;;;;;;;3.65;2.97;;;;;;;;;;5009969;28;20053;-77
2022/04/26 08:16:41;;;;;;;5.80;3.50;;;;;;;;;;5033227;28;20037;-77
2022/04/26 08:19:10;;;;;;;5.32;3.20;;;;;;;;;;5032004;28;20042;-77
2022/04/26 08:21:36;;;;;;;4.45;3.45;;;;;;;;;;5015007;28;20071;-77
2022/04/26 08:29:35;;;;;;;6.20;3.53;;;;;;;;;;5015666;28;20046;-78
2022/04/26 08:32:00;;;;;;;6.18;3.45;;;;;;;;;;5028489;28;20397;-78
2022/04/26 08:34:28;;;;;;;5.22;2.97;;;;;;;;;;5027496;28;20075;-77
2022/04/26 08:36:54;;;;;;;6.80;3.22;;;;;;;;;;5027820;28;20453;-78
2022/04/26 08:39:21;;;;;;;4.25;3.05;;;;;;;;;;5012555;28;20084;-77
2022/04/26 08:41:47;;;;;;;4.35;3.60;;;;;;;;;;5012018;28;20057;-77
2022/04/26 08:44:13;;;;;;;5.18;3.58;;;;;;;;;;5027435;28;20042;-77
2022/04/26 08:52:09;;;;;;;5.97;3.28;;;;;;;;;;5010709;28;20576;-77
2022/04/26 08:54:35;;;;;;;4.68;3.40;;;;;;;;;;5010979;28;20656;-77
2022/04/26 08:57:02;;;;;;;3.75;2.80;;;;;;;;;;5027155;28;20041;-77
2022/04/26 08:59:30;;;;;;;5.15;3.63;;;;;;;;;;5018873;28;20049;-77
2022/04/26 09:02:13;;;;;;;4.22;3.05;;;;;;;;;;5011238;28;20053;-77
2022/04/26 09:04:39;;;;;;;;;;;;;;;;;;5011225;28;20045;-77
2022/04/26 09:07:09;;;;;;;3.65;3.00;;;;;;;;;;5028212;28;19921;-79
2022/04/26 09:09:38;;;;;;;3.42;3.05;;;;;;;;;;5031251;28;20045;-77
2022/04/26 09:12:09;;;;;;;4.03;3.13;;;;;;;;;;5025548;28;20128;-78
2022/04/26 09:14:50;;;;;;;4.28;3.13;;;;;;;;;;5030146;28;20050;-77
2022/04/26 09:17:16;;;;;;;5.88;3.15;;;;;;;;;;5028052;28;20045;-78
2022/04/26 09:19:49;;;;;;;3.50;3.20;;;;;;;;;;5011289;28;20053;-77
2022/04/26 09:22:22;;;;;;;3.90;3.47;;;;;;;;;;5012089;28;20111;-78
2022/04/26 09:25:05;;;;;;;4.65;3.10;;;;;;;;;;5005886;28;20049;-78
2022/04/26 09:27:31;;;;;;;3.83;3.17;;;;;;;;;;5010731;28;20141;-77
2022/04/26 09:29:57;;;;;;;3.53;2.83;;;;;;;;;;5027241;28;20041;-79
2022/04/26 09:32:23;;;;;;;5.90;3.28;;;;;;;;;;5028506;28;20465;-78
2022/04/26 09:34:50;;;;;;;4.88;3.33;;;;;;;;;;5030506;28;20080;-78
2022/04/26 09:37:16;;;;;;;4.95;3.20;;;;;;;;;;5027326;28;20045;-78
2022/04/26 09:40:00;;;;;;;5.75;2.78;;;;;;;;;;5028111;28;20125;-78
2022/04/26 09:42:30;;;;;;;3.17;2.75;;;;;;;;;;5027381;28;20037;-78
2022/04/26 09:45:03;;;;;;;5.45;3.15;;;;;;;;;;5001246;28;20559;-78
2022/04/26 09:47:36;;;;;;;4.00;2.65;;;;;;;;;;5009331;28;20054;-78
2022/04/26 09:50:07;;;;;;;5.13;3.13;;;;;;;;;;5020112;28;20058;-77
2022/04/26 09:52:33;;;;;;;2.90;2.70;;;;;;;;;;5027196;28;20050;-78
2022/04/26 09:55:00;;;;;;;2.92;2.45;;;;;;;;;;5021922;28;20098;-79
2022/04/26 09:57:28;;;;;;;3.85;3.00;;;;;;;;;;5011523;28;20085;-77
2022/04/26 09:59:54;;;;;;;4.32;3.38;;;;;;;;;;5025640;28;20045;-78
2022/04/26 10:02:22;;;;;;;3.95;2.75;;;;;;;;;;5010218;28;20409;-78
2022/04/26 10:04:53;;;;;;;4.57;3.10;;;;;;;;;;5028938;28;20053;-78
2022/04/26 10:07:20;;;;;;;3.22;2.90;;;;;;;;;;5028543;28;20054;-78
2022/04/26 10:09:46;;;;;;;4.70;2.95;;;;;;;;;;5027956;28;20094;-78
2022/04/26 10:12:13;;;;;;;3.92;2.83;;;;;;;;;;5028906;28;20057;-78
2022/04/26 10:14:39;;;;;;;3.47;2.70;;;;;;;;;;5026328;28;20367;-79
2022/04/26 10:17:07;;;;;;;3.22;2.50;;;;;;;;;;5019026;28;20041;-78
2022/04/26 10:19:40;;;;;;;2.72;2.50;;;;;;;;;;5012203;28;20135;-78
2022/04/26 10:22:11;;;;;;;6.55;3.08;;;;;;;;;;5025357;28;20723;-78
2022/04/26 10:24:41;;;;;;;4.28;2.70;;;;;;;;;;5018653;28;20057;-78
2022/04/26 10:27:17;;;;;;;3.55;2.75;;;;;;;;;;5027765;28;20049;-78
2022/04/26 10:29:46;;;;;;;4.05;2.50;;;;;;;;;;5027701;28;20120;-78
2022/04/26 10:32:28;;;;;;;4.28;3.00;;;;;;;;;;5019808;28;20401;-78
2022/04/26 10:34:54;;;;;;;3.08;2.60;;;;;;;;;;5029674;28;20500;-78
2022/04/26 10:37:20;;;;;;;4.15;2.67;;;;;;;;;;5026648;28;20227;-77
2022/04/26 10:39:48;;;;;;;4.57;2.97;;;;;;;;;;5025387;28;20037;-77
2022/04/26 10:42:15;;;;;;;3.00;2.42;;;;;;;;;;5029760;28;20168;-77
2022/04/26 10:44:47;;;;;;;2.80;2.60;;;;;;;;;;5029224;28;20076;-77
2022/04/26 10:47:18;;;;;;;3.53;2.67;;;;;;;;;;5012607;28;20534;-78
2022/04/26 10:49:45;;;;;;;6.10;3.17;;;;;;;;;;5013645;28;20188;-77
2022/04/26 10:52:34;;;;;;;3.78;2.50;;;;;;;;;;5026659;28;20054;-78
2022/04/26 10:55:03;;;;;;;5.13;2.92;;;;;;;;;;5030386;28;20045;-77
2022/04/26 10:57:30;;;;;;;3.63;2.85;;;;;;;;;;5010328;28;20079;-77
2022/04/26 10:59:58;;;;;;;3.28;2.80;;;;;;;;;;5026990;28;20134;-77
2022/04/26 11:02:25;;;;;;;3.08;2.67;;;;;;;;;;5026845;28;20053;-77
2022/04/26 11:05:01;;;;;;;3.95;2.78;;;;;;;;;;5019591;28;20141;-77
2022/04/26 11:07:29;;;;;;;3.22;2.92;;;;;;;;;;5019104;28;20037;-77
2022/04/26 11:09:56;;;;;;;3.85;2.60;;;;;;;;;;5025110;28;20038;-78
2022/04/26 11:12:23;;;;;;;5.05;2.80;;;;;;;;;;5026425;28;20088;-77
2022/04/26 11:14:50;;;;;;;5.53;2.78;;;;;;;;;;5028135;28;20160;-77
2022/04/26 11:17:17;;;;;;;4.28;2.80;;;;;;;;;;5030360;28;20103;-77
2022/04/26 11:19:53;;;;;;;4.53;3.00;;;;;;;;;;5028563;28;20046;-77
2022/04/26 11:22:20;;;;;;;3.25;2.80;;;;;;;;;;5010338;28;20073;-77
2022/04/26 11:30:24;;;;;;;4.40;3.00;;;;;;;;;;5012700;28;20062;-77
2022/04/26 11:32:50;;;;;;;4.20;2.60;;;;;;;;;;5013614;28;20046;-77
2022/04/26 11:35:17;;;;;;;5.47;3.00;;;;;;;;;;5032527;28;20079;-77
2022/04/26 11:37:53;;;;;;;3.00;2.80;;;;;;;;;;5031094;28;20061;-77
2022/04/26 11:40:26;;;;;;;3.20;2.90;;;;;;;;;;5030952;28;20037;-77
2022/04/26 11:42:52;;;;;;;5.40;2.70;;;;;;;;;;5014676;28;20056;-77
2022/04/26 11:45:18;;;;;;;2.92;2.72;;;;;;;;;;5029634;28;20085;-77
2022/04/26 11:47:48;;;;;;;4.63;3.10;;;;;;;;;;5015743;28;20053;-78
2022/04/26 11:50:15;;;;;;;3.22;2.80;;;;;;;;;;5013270;28;20057;-77
2022/04/26 11:52:43;;;;;;;6.22;3.00;;;;;;;;;;5026558;28;20113;-78
2022/04/26 11:55:19;;;;;;;3.60;2.70;;;;;;;;;;5028643;28;20068;-78
2022/04/26 11:57:46;;;;;;;3.65;2.90;;;;;;;;;;5013010;28;20045;-78
2022/04/26 12:00:12;;;;;;;4.78;2.83;;;;;;;;;;5028498;28;20199;-78
2022/04/26 12:02:39;;;;;;;6.30;2.83;;;;;;;;;;5012672;28;20432;-77
2022/04/26 12:05:05;;;;;;;7.72;2.90;;;;;;;;;;5030324;28;20052;-77
2022/04/26 12:07:31;;;;;;;3.72;2.70;;;;;;;;;;5008628;28;20045;-77
2022/04/26 12:09:57;;;;;;;3.60;2.65;;;;;;;;;;5014111;28;20393;-77
2022/04/26 12:12:24;;;;;;;3.63;2.55;;;;;;;;;;5011913;28;20511;-77
2022/04/26 12:14:50;;;;;;;4.53;2.78;;;;;;;;;;5028721;28;20053;-77
2022/04/26 12:17:22;;;;;;;4.30;2.60;;;;;;;;;;5012222;28;20053;-78
2022/04/26 12:19:51;;;;;;;3.08;2.42;;;;;;;;;;5029936;28;20041;-77
2022/04/26 12:22:19;;;;;;;5.22;2.70;;;;;;;;;;5012770;28;20046;-77
2022/04/26 12:24:48;;;;;;;3.13;2.78;;;;;;;;;;5028565;28;20061;-77
2022/04/26 12:27:14;;;;;;;2.78;2.50;;;;;;;;;;5010477;28;20037;-77
2022/04/26 12:29:42;;;;;;;3.35;2.88;;;;;;;;;;5030038;28;20053;-77
2022/04/26 12:32:09;;;;;;;3.08;2.55;;;;;;;;;;5013165;28;20041;-77
2022/04/26 12:34:38;;;;;;;4.90;2.80;;;;;;;;;;5011649;28;20113;-77
2022/04/26 12:37:09;;;;;;;5.82;3.25;;;;;;;;;;5012348;28;20045;-77
2022/04/26 12:39:44;;;;;;;4.28;2.70;;;;;;;;;;5024465;28;20044;-77
2022/04/26 12:42:12;;;;;;;3.72;2.70;;;;;;;;;;5030150;28;20045;-77
2022/04/26 12:44:48;;;;;;;5.10;2.50;;;;;;;;;;5024118;28;20054;-78
2022/04/26 12:52:48;;;;;;;3.60;2.60;;;;;;;;;;5028116;28;20064;-78
2022/04/26 12:55:24;;;;;;;2.92;2.55;;;;;;;;;;5030498;28;20037;-78
2022/04/26 12:57:51;;;;;;;4.57;2.45;;;;;;;;;;5026636;28;20152;-78
2022/04/26 13:00:21;;;;;;;4.05;2.50;;;;;;;;;;5029268;28;20544;-78
2022/04/26 13:02:51;;;;;;;6.13;2.70;;;;;;;;;;5030247;28;20052;-78
2022/04/26 13:05:17;;;;;;;3.47;2.50;;;;;;;;;;5027050;28;20055;-78
2022/04/26 13:07:46;;;;;;;3.65;2.75;;;;;;;;;;5023240;28;20053;-77
2022/04/26 13:10:12;;;;;;;5.38;3.40;;;;;;;;;;5027973;28;20055;-78
2022/04/26 13:12:38;;;;;;;3.13;2.83;;;;;;;;;;5009835;28;20041;-78
2022/04/26 13:15:08;;;;;;;2.72;2.50;;;;;;;;;;5012676;28;20048;-78
2022/04/26 13:17:35;;;;;;;4.50;2.80;;;;;;;;;;5018302;28;20508;-77
2022/04/26 13:20:01;;;;;;;4.03;2.70;;;;;;;;;;5011757;28;20041;-78
2022/04/26 13:22:28;;;;;;;4.97;3.17;;;;;;;;;;4996244;28;20129;-77
2022/04/26 13:24:54;;;;;;;4.53;3.03;;;;;;;;;;5029218;28;20048;-77
2022/04/26 13:27:20;;;;;;;3.33;2.60;;;;;;;;;;5026408;28;20091;-78
2022/04/26 13:29:48;;;;;;;5.18;2.55;;;;;;;;;;5023295;28;20492;-78
2022/04/26 13:32:15;;;;;;;4.15;3.17;;;;;;;;;;5011827;28;20049;-77
2022/04/26 13:34:41;;;;;;;11.13;3.20;;;;;;;;;;5008929;28;20045;-78
2022/04/26 13:37:07;;;;;;;3.30;2.72;;;;;;;;;;5012702;28;20054;-77
2022/04/26 13:39:34;;;;;;;4.43;2.45;;;;;;;;;;5028723;28;20045;-78
2022/04/26 13:42:00;;;;;;;4.20;2.50;;;;;;;;;;5011590;28;20076;-78
2022/04/26 13:44:26;;;;;;;4.68;2.88;;;;;;;;;;5026898;28;20033;-77
2022/04/26 13:46:53;;;;;;;4.10;2.58;;;;;;;;;;5021159;28;20451;-78
2022/04/26 13:49:22;;;;;;;2.78;2.58;;;;;;;;;;5028902;28;20041;-78
2022/04/26 13:51:48;;;;;;;3.33;2.50;;;;;;;;;;5028699;28;20501;-78
2022/04/26 13:54:14;;;;;;;3.13;2.30;;;;;;;;;;5005956;28;20133;-77
2022/04/26 13:56:40;;;;;;;3.53;2.65;;;;;;;;;;5030386;28;20041;-78
2022/04/26 13:59:06;;;;;;;3.42;2.45;;;;;;;;;;5027263;28;20087;-78
2022/04/26 14:01:32;;;;;;;6.47;2.70;;;;;;;;;;5010638;28;20049;-79
2022/04/26 14:03:58;;;;;;;3.05;2.20;;;;;;;;;;5010721;28;20137;-80
2022/04/26 14:06:24;;;;;;;2.42;2.10;;;;;;;;;;5025618;28;20037;-77
2022/04/26 14:08:51;;;;;;;3.40;2.55;;;;;;;;;;5030770;28;20117;-78
2022/04/26 14:11:17;;;;;;;3.40;2.47;;;;;;;;;;5029317;28;20386;-78
2022/04/26 14:21:58;;;;;;;3.53;2.20;;;;;;;;;;5013434;28;20393;-79
2022/04/26 14:24:24;;;;;;;3.92;2.25;;;;;;;;;;5029030;28;20492;-79
2022/04/26 14:26:51;;;;;;;4.32;2.30;;;;;;;;;;5015519;28;20464;-79
2022/04/26 14:29:17;;;;;;;3.20;2.25;;;;;;;;;;5013100;28;20083;-79
2022/04/26 14:31:43;;;;;;;2.58;2.30;;;;;;;;;;5008777;28;20511;-78
2022/04/26 14:34:10;;;;;;;3.20;2.13;;;;;;;;;;5032912;28;20041;-78
2022/04/26 14:36:37;;;;;;;6.30;2.63;;;;;;;;;;5025298;28;20561;-77
2022/04/26 14:39:03;;;;;;;2.83;1.80;;;;;;;;;;5009904;28;20065;-79
2022/04/26 14:41:29;;;;;;;3.67;2.30;;;;;;;;;;5031289;28;20436;-78
2022/04/26 14:43:55;;;;;;;4.15;2.33;;;;;;;;;;5015183;28;20041;-79
2022/04/26 14:46:21;;;;;;;3.28;2.00;;;;;;;;;;5024527;28;20041;-79
2022/04/26 14:48:47;;;;;;;3.00;2.00;;;;;;;;;;5031156;28;20160;-79
2022/04/26 14:51:13;;;;;;;2.72;1.90;;;;;;;;;;5012926;28;20096;-79
2022/04/26 14:53:39;;;;;;;2.00;1.80;;;;;;;;;;5028064;28;20492;-79
2022/04/26 14:56:06;;;;;;;2.70;1.92;;;;;;;;;;5028468;28;20045;-80
2022/04/26 14:58:33;;;;;;;3.10;1.90;;;;;;;;;;5015857;28;20060;-77
2022/04/26 15:00:59;;;;;;;2.28;1.90;;;;;;;;;;5012258;28;20068;-77
2022/04/26 15:03:27;;;;;;;3.78;1.90;;;;;;;;;;5012755;28;20481;-74
2022/04/26 15:05:53;;;;;;;3.92;1.80;;;;;;;;;;5027638;28;20045;-74
2022/04/26 15:11:04;;;;;;;2.28;1.88;;;;;;;;;;5013738;28;20050;-74
2022/04/26 15:18:59;;;;;;;2.70;1.90;;;;;;;;;;5028927;28;20045;-76
2022/04/26 15:21:25;;;;;;;2.33;2.13;;;;;;;;;;5030983;28;20064;-76
2022/04/26 15:23:54;;;;;;;2.63;1.83;;;;;;;;;;5012240;28;20510;-76
2022/04/26 15:26:21;;;;;;;3.55;1.95;;;;;;;;;;5014340;28;20126;-76
2022/04/26 15:28:47;;;;;;;3.28;2.00;;;;;;;;;;5026810;28;20047;-76
2022/04/26 15:31:18;;;;;;;2.28;2.08;;;;;;;;;;5026114;28;20049;-76
2022/04/26 15:33:44;;;;;;;2.95;2.10;;;;;;;;;;5032528;28;20080;-84
2022/04/26 15:36:10;;;;;;;2.38;1.90;;;;;;;;;;5028986;28;20393;-77
2022/04/26 15:38:37;;;;;;;2.50;2.10;;;;;;;;;;5026804;28;20042;-75
2022/04/26 15:41:06;;;;;;;2.50;1.95;;;;;;;;;;5008794;28;20455;-77
2022/04/26 15:43:36;;;;;;;3.47;2.22;;;;;;;;;;5022973;28;20049;-76
2022/04/26 15:46:07;;;;;;;2.85;1.88;;;;;;;;;;5009765;28;20045;-77
2022/04/26 15:48:37;;;;;;;2.13;1.70;;;;;;;;;;5011435;28;20056;-77
2022/04/26 15:51:04;;;;;;;2.35;1.92;;;;;;;;;;5012697;28;20053;-76
2022/04/26 15:53:30;;;;;;;3.63;1.90;;;;;;;;;;5026746;28;20489;-76
2022/04/26 15:55:56;;;;;;;4.30;2.10;;;;;;;;;;5028964;28;20083;-79
2022/04/26 15:58:22;;;;;;;5.20;2.35;;;;;;;;;;5015288;28;20301;-78
2022/04/26 16:00:48;;;;;;;3.25;2.00;;;;;;;;;;5027508;28;20558;-79
2022/04/26 16:03:15;;;;;;;2.85;2.00;;;;;;;;;;5014219;28;20491;-78
2022/04/26 16:05:42;;;;;;;4.93;2.25;;;;;;;;;;5012863;28;20144;-78
2022/04/26 16:08:08;;;;;;;3.10;2.00;;;;;;;;;;5022778;28;20045;-76
2022/04/26 16:21:33;;;;;;;2.42;2.17;;;;;;;;;;5006321;28;20057;-77
2022/04/26 16:24:00;;;;;;;4.50;2.35;;;;;;;;;;5012441;28;20220;-78
2022/04/26 16:26:27;;;;;;;4.13;1.98;;;;;;;;;;5027179;28;20041;-77
2022/04/26 16:28:53;;;;;;;3.58;2.10;;;;;;;;;;5007238;28;20049;-78
2022/04/26 16:31:20;;;;;;;3.55;2.28;;;;;;;;;;5022828;28;20053;-77
2022/04/26 16:33:55;;;;;;;3.47;2.00;;;;;;;;;;5016478;28;20068;-78
2022/04/26 16:36:22;;;;;;;2.42;2.00;;;;;;;;;;5020053;28;20034;-78
2022/04/26 16:38:48;;;;;;;4.70;2.10;;;;;;;;;;5001528;28;20053;-78
2022/04/26 16:41:14;;;;;;;3.95;2.00;;;;;;;;;;5016714;28;20152;-78
2022/04/26 16:43:43;;;;;;;3.50;1.98;;;;;;;;;;5007927;28;20057;-77
2022/04/26 16:46:11;;;;;;;2.17;1.70;;;;;;;;;;5008674;28;20069;-77
2022/04/26 16:48:37;;;;;;;2.95;1.90;;;;;;;;;;5008445;28;20042;-77
2022/04/26 16:51:03;;;;;;;2.92;2.15;;;;;;;;;;5024118;28;20050;-77
2022/04/26 16:53:29;;;;;;;2.53;2.03;;;;;;;;;;5022318;28;20547;-78
2022/04/26 16:55:56;;;;;;;4.20;1.95;;;;;;;;;;5020730;28;20034;-78
2022/04/26 16:58:22;;;;;;;3.38;2.00;;;;;;;;;;5024528;28;20061;-78
2022/04/26 17:00:48;;;;;;;3.75;1.83;;;;;;;;;;5010972;28;20440;-79
2022/04/26 17:03:15;;;;;;;3.10;1.80;;;;;;;;;;5020213;28;20370;-78
2022/04/26 17:05:45;;;;;;;2.88;1.83;;;;;;;;;;5005114;28;20477;-79
2022/04/26 17:08:12;;;;;;;2.03;1.80;;;;;;;;;;5004694;28;20049;-79
2022/04/26 17:10:38;;;;;;;2.47;1.92;;;;;;;;;;5024356;28;20053;-78
2022/04/26 17:13:04;;;;;;;4.93;2.58;;;;;;;;;;5027842;28;20579;-77
2022/04/26 17:15:31;;;;;;;4.78;2.10;;;;;;;;;;5026168;28;20068;-77
2022/04/26 17:17:57;;;;;;;2.83;1.95;;;;;;;;;;5026028;28;20053;-79
2022/04/26 17:20:23;;;;;;;2.70;2.03;;;;;;;;;;5009983;28;20038;-78
2022/04/26 17:22:51;;;;;;;2.78;1.98;;;;;;;;;;5029159;28;20095;-78
2022/04/26 17:25:17;;;;;;;2.30;1.80;;;;;;;;;;5027619;28;20054;-78
2022/04/26 17:27:44;;;;;;;3.03;2.03;;;;;;;;;;5027249;28;20049;-78
2022/04/26 17:30:12;;;;;;;3.88;2.00;;;;;;;;;;5028514;28;20049;-78
2022/04/26 17:32:39;;;;;;;4.15;1.90;;;;;;;;;;5028472;28;20547;-77
2022/04/26 17:35:06;;;;;;;3.65;2.10;;;;;;;;;;5003008;28;20430;-78
2022/04/26 17:37:32;;;;;;;3.05;2.00;;;;;;;;;;5021741;28;20050;-78
2022/04/26 17:39:58;;;;;;;3.15;2.10;;;;;;;;;;5024607;28;20108;-78
2022/04/26 17:42:24;;;;;;;3.70;2.20;;;;;;;;;;5029328;28;20125;-78
2022/04/26 17:44:51;;;;;;;7.25;2.70;;;;;;;;;;5012014;28;20087;-79
2022/04/26 17:47:17;;;;;;;2.47;2.05;;;;;;;;;;5026362;28;20057;-79
2022/04/26 17:49:43;;;;;;;3.05;1.85;;;;;;;;;;5016881;28;20118;-78
2022/04/26 17:52:09;;;;;;;2.40;2.20;;;;;;;;;;5032646;28;20060;-79
2022/04/26 17:57:20;;;;;;;2.67;2.08;;;;;;;;;;5011305;28;20045;-79
2022/04/26 17:59:46;;;;;;;3.30;2.08;;;;;;;;;;5024748;28;20504;-79
2022/04/26 18:02:12;;;;;;;3.53;2.17;;;;;;;;;;5032115;28;20041;-79
2022/04/26 18:04:40;;;;;;;4.40;2.47;;;;;;;;;;5032360;28;20519;-79
2022/04/26 18:07:06;;;;;;;4.75;2.50;;;;;;;;;;5013301;28;20049;-78
2022/04/26 18:09:36;;;;;;;5.60;2.83;;;;;;;;;;5031004;28;20079;-78
2022/04/26 18:12:02;;;;;;;5.55;2.33;;;;;;;;;;5015054;28;20049;-78
2022/04/26 18:14:29;;;;;;;3.65;2.53;;;;;;;;;;5015236;28;20056;-78
2022/04/26 18:16:55;;;;;;;4.55;2.50;;;;;;;;;;5016580;28;20123;-78
2022/04/26 18:19:21;;;;;;;5.55;2.30;;;;;;;;;;5033066;28;20083;-78
2022/04/26 18:21:46;;;;;;;5.22;2.55;;;;;;;;;;5026653;28;20045;-78
2022/04/26 18:24:14;;;;;;;3.75;2.58;;;;;;;;;;5012000;28;20113;-79
2022/04/26 18:26:42;;;;;;;3.15;2.00;;;;;;;;;;5033026;28;20349;-79
2022/04/26 18:29:09;;;;;;;3.40;2.00;;;;;;;;;;5012121;28;20053;-79
2022/04/26 18:31:37;;;;;;;4.72;2.63;;;;;;;;;;5028314;28;20049;-78
2022/04/26 18:34:04;;;;;;;4.75;2.63;;;;;;;;;;5032848;28;20053;-78
2022/04/26 18:36:30;;;;;;;3.53;2.50;;;;;;;;;;5030671;28;20061;-79
2022/04/26 18:38:57;;;;;;;3.60;2.40;;;;;;;;;;5032091;28;20473;-79
2022/04/26 18:41:25;;;;;;;5.15;2.50;;;;;;;;;;5008366;28;20049;-78
2022/04/26 18:43:52;;;;;;;3.10;2.22;;;;;;;;;;5026137;28;20041;-78
2022/04/26 18:46:21;;;;;;;4.75;2.60;;;;;;;;;;5032442;28;20521;-79
2022/04/26 18:48:48;;;;;;;4.50;2.60;;;;;;;;;;5031108;28;20087;-79
2022/04/26 18:51:14;;;;;;;6.35;2.95;;;;;;;;;;5015745;28;20140;-79
2022/04/26 18:53:41;;;;;;;5.03;2.58;;;;;;;;;;5028219;28;20053;-79
2022/04/26 18:56:07;;;;;;;7.50;2.85;;;;;;;;;;5031320;28;20066;-79
2022/04/26 18:58:34;;;;;;;5.57;2.70;;;;;;;;;;5014680;28;20132;-79
2022/04/26 19:01:00;;;;;;;8.13;2.80;;;;;;;;;;5015879;28;20045;-79
2022/04/26 19:03:27;;;;;;;4.15;2.70;;;;;;;;;;5004345;28;20580;-79
2022/04/26 19:05:53;;;;;;;6.78;2.70;;;;;;;;;;5031457;28;20148;-79
2022/04/26 19:08:22;;;;;;;6.10;2.58;;;;;;;;;;5030849;28;20068;-79
2022/04/26 19:13:35;;;;;;;3.63;2.60;;;;;;;;;;5031010;28;20077;-79
2022/04/26 19:16:01;;;;;;;8.15;2.63;;;;;;;;;;5032506;28;20497;-78
2022/04/26 19:18:27;;;;;;;4.57;2.30;;;;;;;;;;5030105;28;20076;-78